9OI9 weather

Riverside Methodist Hospital Heliport
Columbus, Ohio, United States

Public forecast

Using degrees Fahrenheit for public forecast. Weather courtesy of forecast.io.

Closest aviation weather report (METAR) to Riverside Methodist Hospital Heliport

Closest report is The Ohio State University Airport - Don Scott Field, 3.4 nm (6.3 km) NNW. Retrieved 2019/12/13 06:53 UTC (37 minutes ago):

KOSU 130653Z AUTO 13006KT 10SM CLR M01/M06 A3017 RMK AO2 SLP226 T10061061

Closest aviation forecast (TAF) to Riverside Methodist Hospital Heliport

Closest forecast is John Glenn Columbus International Airport, 6.9 nm (12.7 km) ESE. Retrieved 2019/12/13 06:48 UTC (42 minutes ago):

TAF KCMH 130545Z 1306/1406 14006KT P6SM BKN250 FM131000 15005KT P6SM OVC050 FM131400 16006KT P6SM BKN025 OVC040 FM132300 13005KT P6SM SCT025 BKN120 FM140200 06003KT 5SM BR SCT025 BKN080 FM140500 03003KT 2SM BR BKN015 OVC080